sensor_id;sensor_type;location;lat;lon;timestamp;P1;durP1;ratioP1;P2;durP2;ratioP2
3149;SDS011;32503;47.748;8.960;2023-07-13T00:01:52;3.57;;;3.37;;
3149;SDS011;32503;47.748;8.960;2023-07-13T00:04:20;4.07;;;3.80;;
3149;SDS011;32503;47.748;8.960;2023-07-13T00:06:50;3.20;;;3.00;;
3149;SDS011;32503;47.748;8.960;2023-07-13T00:09:17;3.40;;;3.10;;
3149;SDS011;32503;47.748;8.960;2023-07-13T00:11:50;2.83;;;2.73;;
3149;SDS011;32503;47.748;8.960;2023-07-13T00:14:22;2.83;;;2.63;;
3149;SDS011;32503;47.748;8.960;2023-07-13T00:16:51;2.90;;;2.80;;
3149;SDS011;32503;47.748;8.960;2023-07-13T00:19:19;4.27;;;3.03;;
3149;SDS011;32503;47.748;8.960;2023-07-13T00:21:46;2.90;;;2.80;;
3149;SDS011;32503;47.748;8.960;2023-07-13T00:24:14;2.87;;;2.77;;
3149;SDS011;32503;47.748;8.960;2023-07-13T00:26:48;3.63;;;3.33;;
3149;SDS011;32503;47.748;8.960;2023-07-13T00:29:16;3.50;;;3.20;;
3149;SDS011;32503;47.748;8.960;2023-07-13T00:31:44;3.30;;;3.20;;
3149;SDS011;32503;47.748;8.960;2023-07-13T00:34:11;3.50;;;3.23;;
3149;SDS011;32503;47.748;8.960;2023-07-13T00:36:39;3.57;;;3.37;;
3149;SDS011;32503;47.748;8.960;2023-07-13T00:39:06;3.00;;;2.80;;
3149;SDS011;32503;47.748;8.960;2023-07-13T00:41:33;2.93;;;2.83;;
3149;SDS011;32503;47.748;8.960;2023-07-13T00:44:02;3.33;;;3.13;;
3149;SDS011;32503;47.748;8.960;2023-07-13T00:46:30;4.50;;;3.10;;
3149;SDS011;32503;47.748;8.960;2023-07-13T00:49:01;2.80;;;2.70;;
3149;SDS011;32503;47.748;8.960;2023-07-13T00:51:33;3.33;;;2.97;;
3149;SDS011;32503;47.748;8.960;2023-07-13T00:54:05;3.87;;;3.57;;
3149;SDS011;32503;47.748;8.960;2023-07-13T00:56:40;2.60;;;2.50;;
3149;SDS011;32503;47.748;8.960;2023-07-13T00:59:10;2.80;;;2.70;;
3149;SDS011;32503;47.748;8.960;2023-07-13T01:01:39;3.30;;;3.10;;
3149;SDS011;32503;47.748;8.960;2023-07-13T01:04:07;2.87;;;2.67;;
3149;SDS011;32503;47.748;8.960;2023-07-13T01:06:36;4.30;;;3.00;;
3149;SDS011;32503;47.748;8.960;2023-07-13T01:09:06;2.80;;;2.70;;
3149;SDS011;32503;47.748;8.960;2023-07-13T01:11:35;2.67;;;2.47;;
3149;SDS011;32503;47.748;8.960;2023-07-13T01:14:03;3.00;;;2.90;;
3149;SDS011;32503;47.748;8.960;2023-07-13T01:16:31;3.43;;;3.13;;
3149;SDS011;32503;47.748;8.960;2023-07-13T01:19:00;3.10;;;3.00;;
3149;SDS011;32503;47.748;8.960;2023-07-13T01:21:32;2.90;;;2.70;;
3149;SDS011;32503;47.748;8.960;2023-07-13T01:23:59;3.17;;;2.97;;
3149;SDS011;32503;47.748;8.960;2023-07-13T01:26:27;2.90;;;2.77;;
3149;SDS011;32503;47.748;8.960;2023-07-13T01:28:54;3.60;;;3.40;;
3149;SDS011;32503;47.748;8.960;2023-07-13T01:31:22;3.03;;;2.93;;
3149;SDS011;32503;47.748;8.960;2023-07-13T01:33:49;3.00;;;2.83;;
3149;SDS011;32503;47.748;8.960;2023-07-13T01:36:16;3.00;;;2.80;;
3149;SDS011;32503;47.748;8.960;2023-07-13T01:38:47;3.37;;;3.07;;
3149;SDS011;32503;47.748;8.960;2023-07-13T01:41:14;2.93;;;2.83;;
3149;SDS011;32503;47.748;8.960;2023-07-13T01:43:42;3.20;;;3.00;;
3149;SDS011;32503;47.748;8.960;2023-07-13T01:46:09;3.77;;;3.20;;
3149;SDS011;32503;47.748;8.960;2023-07-13T01:48:36;3.17;;;3.00;;
3149;SDS011;32503;47.748;8.960;2023-07-13T01:51:03;4.83;;;4.03;;
3149;SDS011;32503;47.748;8.960;2023-07-13T01:53:30;12.97;;;8.90;;
3149;SDS011;32503;47.748;8.960;2023-07-13T01:55:58;4.50;;;4.20;;
3149;SDS011;32503;47.748;8.960;2023-07-13T01:58:25;6.80;;;5.23;;
3149;SDS011;32503;47.748;8.960;2023-07-13T02:00:53;6.17;;;5.67;;
3149;SDS011;32503;47.748;8.960;2023-07-13T02:03:20;4.97;;;4.57;;
3149;SDS011;32503;47.748;8.960;2023-07-13T02:05:47;4.73;;;4.33;;
3149;SDS011;32503;47.748;8.960;2023-07-13T02:08:14;4.13;;;3.93;;
3149;SDS011;32503;47.748;8.960;2023-07-13T02:10:41;4.87;;;4.40;;
3149;SDS011;32503;47.748;8.960;2023-07-13T02:13:09;3.43;;;3.23;;
3149;SDS011;32503;47.748;8.960;2023-07-13T02:15:38;3.63;;;3.47;;
3149;SDS011;32503;47.748;8.960;2023-07-13T02:18:06;3.70;;;3.50;;
3149;SDS011;32503;47.748;8.960;2023-07-13T02:20:33;2.67;;;2.47;;
3149;SDS011;32503;47.748;8.960;2023-07-13T02:23:00;3.73;;;3.43;;
3149;SDS011;32503;47.748;8.960;2023-07-13T02:25:27;3.70;;;3.40;;
3149;SDS011;32503;47.748;8.960;2023-07-13T02:27:54;3.30;;;3.10;;
3149;SDS011;32503;47.748;8.960;2023-07-13T02:30:23;3.23;;;3.03;;
3149;SDS011;32503;47.748;8.960;2023-07-13T02:32:50;2.87;;;2.70;;
3149;SDS011;32503;47.748;8.960;2023-07-13T02:35:17;3.37;;;3.17;;
3149;SDS011;32503;47.748;8.960;2023-07-13T02:37:44;3.50;;;3.30;;
3149;SDS011;32503;47.748;8.960;2023-07-13T02:40:11;3.37;;;3.17;;
3149;SDS011;32503;47.748;8.960;2023-07-13T02:42:39;3.83;;;3.63;;
3149;SDS011;32503;47.748;8.960;2023-07-13T02:45:07;3.83;;;3.43;;
3149;SDS011;32503;47.748;8.960;2023-07-13T02:47:37;2.90;;;2.80;;
3149;SDS011;32503;47.748;8.960;2023-07-13T02:50:04;3.63;;;3.00;;
3149;SDS011;32503;47.748;8.960;2023-07-13T02:52:32;3.90;;;3.60;;
3149;SDS011;32503;47.748;8.960;2023-07-13T02:55:00;3.60;;;3.23;;
3149;SDS011;32503;47.748;8.960;2023-07-13T02:57:27;2.80;;;2.70;;
3149;SDS011;32503;47.748;8.960;2023-07-13T02:59:54;3.60;;;3.40;;
3149;SDS011;32503;47.748;8.960;2023-07-13T03:02:21;3.40;;;3.20;;
3149;SDS011;32503;47.748;8.960;2023-07-13T03:04:49;4.07;;;3.87;;
3149;SDS011;32503;47.748;8.960;2023-07-13T03:07:16;8.30;;;3.47;;
3149;SDS011;32503;47.748;8.960;2023-07-13T03:09:43;3.07;;;2.87;;
3149;SDS011;32503;47.748;8.960;2023-07-13T03:12:11;3.73;;;3.53;;
3149;SDS011;32503;47.748;8.960;2023-07-13T03:14:38;3.23;;;3.13;;
3149;SDS011;32503;47.748;8.960;2023-07-13T03:17:05;3.60;;;3.40;;
3149;SDS011;32503;47.748;8.960;2023-07-13T03:19:32;3.83;;;3.40;;
3149;SDS011;32503;47.748;8.960;2023-07-13T03:22:00;3.40;;;3.00;;
3149;SDS011;32503;47.748;8.960;2023-07-13T03:24:27;3.57;;;3.13;;
3149;SDS011;32503;47.748;8.960;2023-07-13T03:26:54;3.60;;;3.40;;
3149;SDS011;32503;47.748;8.960;2023-07-13T03:29:21;3.60;;;3.30;;
3149;SDS011;32503;47.748;8.960;2023-07-13T03:31:48;3.77;;;3.43;;
3149;SDS011;32503;47.748;8.960;2023-07-13T03:34:16;3.93;;;3.73;;
3149;SDS011;32503;47.748;8.960;2023-07-13T03:36:43;3.87;;;3.67;;
3149;SDS011;32503;47.748;8.960;2023-07-13T03:39:11;3.30;;;3.20;;
3149;SDS011;32503;47.748;8.960;2023-07-13T03:41:38;3.93;;;3.63;;
3149;SDS011;32503;47.748;8.960;2023-07-13T03:44:05;4.57;;;3.73;;
3149;SDS011;32503;47.748;8.960;2023-07-13T03:46:33;3.47;;;3.37;;
3149;SDS011;32503;47.748;8.960;2023-07-13T03:49:00;3.97;;;3.63;;
3149;SDS011;32503;47.748;8.960;2023-07-13T03:51:28;4.43;;;4.10;;
3149;SDS011;32503;47.748;8.960;2023-07-13T03:53:55;4.33;;;4.03;;
3149;SDS011;32503;47.748;8.960;2023-07-13T03:56:24;8.10;;;3.97;;
3149;SDS011;32503;47.748;8.960;2023-07-13T03:58:52;3.97;;;3.77;;
3149;SDS011;32503;47.748;8.960;2023-07-13T04:01:19;3.57;;;3.23;;
3149;SDS011;32503;47.748;8.960;2023-07-13T04:03:50;3.40;;;3.20;;
3149;SDS011;32503;47.748;8.960;2023-07-13T04:06:18;4.37;;;4.17;;
3149;SDS011;32503;47.748;8.960;2023-07-13T04:08:48;4.00;;;3.80;;
3149;SDS011;32503;47.748;8.960;2023-07-13T04:11:17;3.73;;;3.40;;
3149;SDS011;32503;47.748;8.960;2023-07-13T04:13:46;3.53;;;3.33;;
3149;SDS011;32503;47.748;8.960;2023-07-13T04:16:14;4.07;;;3.87;;
3149;SDS011;32503;47.748;8.960;2023-07-13T04:18:42;4.13;;;3.87;;
3149;SDS011;32503;47.748;8.960;2023-07-13T04:21:09;4.17;;;3.70;;
3149;SDS011;32503;47.748;8.960;2023-07-13T04:23:37;6.27;;;4.10;;
3149;SDS011;32503;47.748;8.960;2023-07-13T04:26:06;3.97;;;3.57;;
3149;SDS011;32503;47.748;8.960;2023-07-13T04:28:34;3.37;;;3.17;;
3149;SDS011;32503;47.748;8.960;2023-07-13T04:31:02;4.00;;;3.80;;
3149;SDS011;32503;47.748;8.960;2023-07-13T04:33:30;3.70;;;3.50;;
3149;SDS011;32503;47.748;8.960;2023-07-13T04:35:57;2.97;;;2.87;;
3149;SDS011;32503;47.748;8.960;2023-07-13T04:38:25;2.90;;;2.70;;
3149;SDS011;32503;47.748;8.960;2023-07-13T04:40:55;4.40;;;4.00;;
3149;SDS011;32503;47.748;8.960;2023-07-13T04:43:24;3.80;;;3.30;;
3149;SDS011;32503;47.748;8.960;2023-07-13T04:45:52;3.90;;;3.70;;
3149;SDS011;32503;47.748;8.960;2023-07-13T04:48:21;3.97;;;3.63;;
3149;SDS011;32503;47.748;8.960;2023-07-13T04:50:54;4.23;;;3.93;;
3149;SDS011;32503;47.748;8.960;2023-07-13T04:53:22;3.47;;;3.27;;
3149;SDS011;32503;47.748;8.960;2023-07-13T04:55:49;4.07;;;3.87;;
3149;SDS011;32503;47.748;8.960;2023-07-13T04:58:16;4.43;;;4.07;;
3149;SDS011;32503;47.748;8.960;2023-07-13T05:00:44;5.93;;;4.20;;
3149;SDS011;32503;47.748;8.960;2023-07-13T05:03:11;4.00;;;3.80;;
3149;SDS011;32503;47.748;8.960;2023-07-13T05:05:40;3.80;;;3.60;;
3149;SDS011;32503;47.748;8.960;2023-07-13T05:08:07;4.63;;;4.20;;
3149;SDS011;32503;47.748;8.960;2023-07-13T05:10:34;4.10;;;3.80;;
3149;SDS011;32503;47.748;8.960;2023-07-13T05:13:01;4.30;;;4.00;;
3149;SDS011;32503;47.748;8.960;2023-07-13T05:15:28;4.60;;;4.30;;
3149;SDS011;32503;47.748;8.960;2023-07-13T05:17:55;4.63;;;4.23;;
3149;SDS011;32503;47.748;8.960;2023-07-13T05:20:23;4.10;;;3.80;;
3149;SDS011;32503;47.748;8.960;2023-07-13T05:22:51;5.80;;;5.20;;
3149;SDS011;32503;47.748;8.960;2023-07-13T05:25:18;4.50;;;4.10;;
3149;SDS011;32503;47.748;8.960;2023-07-13T05:27:45;4.53;;;3.90;;
3149;SDS011;32503;47.748;8.960;2023-07-13T05:30:12;4.57;;;3.93;;
3149;SDS011;32503;47.748;8.960;2023-07-13T05:32:40;5.80;;;5.30;;
3149;SDS011;32503;47.748;8.960;2023-07-13T05:35:07;6.90;;;4.93;;
3149;SDS011;32503;47.748;8.960;2023-07-13T05:37:35;4.17;;;3.87;;
3149;SDS011;32503;47.748;8.960;2023-07-13T05:40:05;5.60;;;5.20;;
3149;SDS011;32503;47.748;8.960;2023-07-13T05:42:33;4.97;;;4.60;;
3149;SDS011;32503;47.748;8.960;2023-07-13T05:45:01;4.43;;;3.97;;
3149;SDS011;32503;47.748;8.960;2023-07-13T05:47:29;4.77;;;4.47;;
3149;SDS011;32503;47.748;8.960;2023-07-13T05:49:56;4.40;;;4.10;;
3149;SDS011;32503;47.748;8.960;2023-07-13T05:52:23;5.73;;;4.67;;
3149;SDS011;32503;47.748;8.960;2023-07-13T05:54:50;7.27;;;4.40;;
3149;SDS011;32503;47.748;8.960;2023-07-13T05:57:19;3.73;;;3.53;;
3149;SDS011;32503;47.748;8.960;2023-07-13T05:59:46;4.77;;;4.30;;
3149;SDS011;32503;47.748;8.960;2023-07-13T06:02:13;4.13;;;3.93;;
3149;SDS011;32503;47.748;8.960;2023-07-13T06:04:40;3.90;;;3.70;;
3149;SDS011;32503;47.748;8.960;2023-07-13T06:07:07;3.93;;;3.67;;
3149;SDS011;32503;47.748;8.960;2023-07-13T06:09:34;4.83;;;4.53;;
3149;SDS011;32503;47.748;8.960;2023-07-13T06:12:01;4.30;;;4.00;;
3149;SDS011;32503;47.748;8.960;2023-07-13T06:14:31;4.43;;;4.20;;
3149;SDS011;32503;47.748;8.960;2023-07-13T06:16:58;4.80;;;4.40;;
3149;SDS011;32503;47.748;8.960;2023-07-13T06:19:25;4.27;;;3.80;;
3149;SDS011;32503;47.748;8.960;2023-07-13T06:21:52;4.07;;;3.87;;
3149;SDS011;32503;47.748;8.960;2023-07-13T06:24:19;4.13;;;3.83;;
3149;SDS011;32503;47.748;8.960;2023-07-13T06:26:46;4.30;;;3.90;;
3149;SDS011;32503;47.748;8.960;2023-07-13T06:29:13;4.47;;;4.10;;
3149;SDS011;32503;47.748;8.960;2023-07-13T06:31:41;4.63;;;4.33;;
3149;SDS011;32503;47.748;8.960;2023-07-13T06:34:09;4.70;;;4.23;;
3149;SDS011;32503;47.748;8.960;2023-07-13T06:36:36;5.40;;;5.00;;
3149;SDS011;32503;47.748;8.960;2023-07-13T06:39:03;6.17;;;5.77;;
3149;SDS011;32503;47.748;8.960;2023-07-13T06:41:32;4.63;;;4.20;;
3149;SDS011;32503;47.748;8.960;2023-07-13T06:44:00;4.70;;;4.50;;
3149;SDS011;32503;47.748;8.960;2023-07-13T06:46:28;4.70;;;4.40;;
3149;SDS011;32503;47.748;8.960;2023-07-13T06:48:57;4.77;;;4.40;;
3149;SDS011;32503;47.748;8.960;2023-07-13T06:51:24;4.00;;;3.80;;
3149;SDS011;32503;47.748;8.960;2023-07-13T06:53:51;4.53;;;4.27;;
3149;SDS011;32503;47.748;8.960;2023-07-13T06:56:19;5.43;;;4.93;;
3149;SDS011;32503;47.748;8.960;2023-07-13T06:58:46;4.13;;;3.93;;
3149;SDS011;32503;47.748;8.960;2023-07-13T07:01:13;4.87;;;4.50;;
3149;SDS011;32503;47.748;8.960;2023-07-13T07:03:40;3.17;;;2.97;;
3149;SDS011;32503;47.748;8.960;2023-07-13T07:06:12;4.87;;;4.47;;
3149;SDS011;32503;47.748;8.960;2023-07-13T07:08:42;4.23;;;4.00;;
3149;SDS011;32503;47.748;8.960;2023-07-13T07:11:11;4.33;;;4.10;;
3149;SDS011;32503;47.748;8.960;2023-07-13T07:13:40;5.00;;;4.60;;
3149;SDS011;32503;47.748;8.960;2023-07-13T07:16:07;4.47;;;4.03;;
3149;SDS011;32503;47.748;8.960;2023-07-13T07:18:34;3.70;;;3.50;;
3149;SDS011;32503;47.748;8.960;2023-07-13T07:21:01;3.90;;;3.60;;
3149;SDS011;32503;47.748;8.960;2023-07-13T07:23:30;3.50;;;3.30;;
3149;SDS011;32503;47.748;8.960;2023-07-13T07:25:57;4.83;;;2.93;;
3149;SDS011;32503;47.748;8.960;2023-07-13T07:28:25;3.90;;;3.60;;
3149;SDS011;32503;47.748;8.960;2023-07-13T07:30:53;4.87;;;3.43;;
3149;SDS011;32503;47.748;8.960;2023-07-13T07:33:22;4.13;;;3.00;;
3149;SDS011;32503;47.748;8.960;2023-07-13T07:35:50;2.77;;;2.57;;
3149;SDS011;32503;47.748;8.960;2023-07-13T07:38:18;2.53;;;2.33;;
3149;SDS011;32503;47.748;8.960;2023-07-13T07:40:48;2.63;;;2.53;;
3149;SDS011;32503;47.748;8.960;2023-07-13T07:43:15;3.10;;;2.90;;
3149;SDS011;32503;47.748;8.960;2023-07-13T07:45:44;3.80;;;3.60;;
3149;SDS011;32503;47.748;8.960;2023-07-13T07:48:11;3.17;;;3.03;;
3149;SDS011;32503;47.748;8.960;2023-07-13T07:50:38;3.80;;;3.50;;
3149;SDS011;32503;47.748;8.960;2023-07-13T07:53:06;3.07;;;2.87;;
3149;SDS011;32503;47.748;8.960;2023-07-13T07:55:35;3.60;;;2.80;;
3149;SDS011;32503;47.748;8.960;2023-07-13T07:58:04;3.13;;;2.70;;
3149;SDS011;32503;47.748;8.960;2023-07-13T08:00:32;2.30;;;2.10;;
3149;SDS011;32503;47.748;8.960;2023-07-13T08:03:00;2.70;;;2.60;;
3149;SDS011;32503;47.748;8.960;2023-07-13T08:05:28;2.73;;;2.53;;
3149;SDS011;32503;47.748;8.960;2023-07-13T08:07:55;2.50;;;2.40;;
3149;SDS011;32503;47.748;8.960;2023-07-13T08:10:22;2.03;;;1.90;;
3149;SDS011;32503;47.748;8.960;2023-07-13T08:12:49;2.33;;;2.23;;
3149;SDS011;32503;47.748;8.960;2023-07-13T08:15:18;2.37;;;2.13;;
3149;SDS011;32503;47.748;8.960;2023-07-13T08:17:46;2.50;;;2.40;;
3149;SDS011;32503;47.748;8.960;2023-07-13T08:20:14;2.63;;;2.43;;
3149;SDS011;32503;47.748;8.960;2023-07-13T08:22:41;2.40;;;2.30;;
3149;SDS011;32503;47.748;8.960;2023-07-13T08:25:08;2.50;;;2.40;;
3149;SDS011;32503;47.748;8.960;2023-07-13T08:27:35;2.60;;;2.30;;
3149;SDS011;32503;47.748;8.960;2023-07-13T08:30:03;2.13;;;2.03;;
3149;SDS011;32503;47.748;8.960;2023-07-13T08:32:35;2.50;;;2.30;;
3149;SDS011;32503;47.748;8.960;2023-07-13T08:35:03;2.50;;;2.23;;
3149;SDS011;32503;47.748;8.960;2023-07-13T08:37:31;2.67;;;2.57;;
3149;SDS011;32503;47.748;8.960;2023-07-13T08:39:58;2.93;;;2.00;;
3149;SDS011;32503;47.748;8.960;2023-07-13T08:42:36;2.20;;;2.00;;
3149;SDS011;32503;47.748;8.960;2023-07-13T08:45:13;2.00;;;1.90;;
3149;SDS011;32503;47.748;8.960;2023-07-13T08:47:51;3.63;;;2.07;;
3149;SDS011;32503;47.748;8.960;2023-07-13T08:50:23;2.13;;;1.90;;
3149;SDS011;32503;47.748;8.960;2023-07-13T08:52:57;2.77;;;2.60;;
3149;SDS011;32503;47.748;8.960;2023-07-13T08:55:27;2.63;;;2.40;;
3149;SDS011;32503;47.748;8.960;2023-07-13T08:57:59;2.27;;;2.07;;
3149;SDS011;32503;47.748;8.960;2023-07-13T09:00:38;3.23;;;2.30;;
3149;SDS011;32503;47.748;8.960;2023-07-13T09:03:18;2.40;;;2.20;;
3149;SDS011;32503;47.748;8.960;2023-07-13T09:05:50;2.30;;;2.20;;
3149;SDS011;32503;47.748;8.960;2023-07-13T09:08:42;2.67;;;2.53;;
3149;SDS011;32503;47.748;8.960;2023-07-13T09:11:23;2.40;;;2.30;;
3149;SDS011;32503;47.748;8.960;2023-07-13T09:14:14;2.30;;;2.10;;
3149;SDS011;32503;47.748;8.960;2023-07-13T09:17:00;2.90;;;2.20;;
3149;SDS011;32503;47.748;8.960;2023-07-13T09:19:32;1.90;;;1.80;;
3149;SDS011;32503;47.748;8.960;2023-07-13T09:22:02;2.27;;;2.17;;
3149;SDS011;32503;47.748;8.960;2023-07-13T09:24:35;1.87;;;1.77;;
3149;SDS011;32503;47.748;8.960;2023-07-13T09:27:09;2.10;;;2.00;;
3149;SDS011;32503;47.748;8.960;2023-07-13T09:29:45;2.10;;;2.00;;
3149;SDS011;32503;47.748;8.960;2023-07-13T09:32:19;2.07;;;1.93;;
3149;SDS011;32503;47.748;8.960;2023-07-13T09:34:52;1.87;;;1.40;;
3149;SDS011;32503;47.748;8.960;2023-07-13T09:37:20;3.87;;;2.00;;
3149;SDS011;32503;47.748;8.960;2023-07-13T09:39:53;2.50;;;2.40;;
3149;SDS011;32503;47.748;8.960;2023-07-13T09:42:22;2.10;;;2.00;;
3149;SDS011;32503;47.748;8.960;2023-07-13T09:44:52;2.17;;;1.97;;
3149;SDS011;32503;47.748;8.960;2023-07-13T09:47:23;2.70;;;2.13;;
3149;SDS011;32503;47.748;8.960;2023-07-13T09:49:57;2.33;;;2.13;;
3149;SDS011;32503;47.748;8.960;2023-07-13T09:52:27;1.70;;;1.60;;
3149;SDS011;32503;47.748;8.960;2023-07-13T09:55:11;3.00;;;1.80;;
3149;SDS011;32503;47.748;8.960;2023-07-13T09:57:52;2.07;;;1.97;;
3149;SDS011;32503;47.748;8.960;2023-07-13T10:00:23;2.10;;;1.90;;
3149;SDS011;32503;47.748;8.960;2023-07-13T10:02:59;1.90;;;1.80;;
3149;SDS011;32503;47.748;8.960;2023-07-13T10:05:42;1.90;;;1.70;;
3149;SDS011;32503;47.748;8.960;2023-07-13T10:08:17;2.00;;;1.80;;
3149;SDS011;32503;47.748;8.960;2023-07-13T10:10:52;2.90;;;1.63;;
3149;SDS011;32503;47.748;8.960;2023-07-13T10:13:27;3.50;;;1.80;;
3149;SDS011;32503;47.748;8.960;2023-07-13T10:15:59;2.20;;;2.10;;
3149;SDS011;32503;47.748;8.960;2023-07-13T10:18:28;2.87;;;1.90;;
3149;SDS011;32503;47.748;8.960;2023-07-13T10:21:13;3.47;;;3.20;;
3149;SDS011;32503;47.748;8.960;2023-07-13T10:23:43;2.40;;;2.20;;
3149;SDS011;32503;47.748;8.960;2023-07-13T10:26:17;2.33;;;2.23;;
3149;SDS011;32503;47.748;8.960;2023-07-13T10:28:51;2.00;;;1.90;;
3149;SDS011;32503;47.748;8.960;2023-07-13T10:31:22;3.00;;;2.10;;
3149;SDS011;32503;47.748;8.960;2023-07-13T10:33:50;1.70;;;1.60;;
3149;SDS011;32503;47.748;8.960;2023-07-13T10:36:20;1.80;;;1.53;;
3149;SDS011;32503;47.748;8.960;2023-07-13T10:38:57;2.60;;;1.77;;
3149;SDS011;32503;47.748;8.960;2023-07-13T10:41:29;1.70;;;1.60;;
3149;SDS011;32503;47.748;8.960;2023-07-13T10:44:01;1.90;;;1.80;;
3149;SDS011;32503;47.748;8.960;2023-07-13T10:46:30;1.70;;;1.60;;
3149;SDS011;32503;47.748;8.960;2023-07-13T10:48:59;1.73;;;1.60;;
3149;SDS011;32503;47.748;8.960;2023-07-13T10:51:33;1.97;;;1.87;;
3149;SDS011;32503;47.748;8.960;2023-07-13T10:54:19;1.90;;;1.80;;
3149;SDS011;32503;47.748;8.960;2023-07-13T10:56:53;2.10;;;2.00;;
3149;SDS011;32503;47.748;8.960;2023-07-13T10:59:39;1.80;;;1.70;;
3149;SDS011;32503;47.748;8.960;2023-07-13T11:02:10;2.83;;;2.10;;
3149;SDS011;32503;47.748;8.960;2023-07-13T11:04:42;1.80;;;1.70;;
3149;SDS011;32503;47.748;8.960;2023-07-13T11:07:19;1.90;;;1.80;;
3149;SDS011;32503;47.748;8.960;2023-07-13T11:09:50;1.80;;;1.70;;
3149;SDS011;32503;47.748;8.960;2023-07-13T11:12:29;1.70;;;1.60;;
3149;SDS011;32503;47.748;8.960;2023-07-13T11:15:27;2.20;;;2.10;;
3149;SDS011;32503;47.748;8.960;2023-07-13T11:18:19;1.57;;;1.47;;
3149;SDS011;32503;47.748;8.960;2023-07-13T11:20:50;1.87;;;1.77;;
3149;SDS011;32503;47.748;8.960;2023-07-13T11:23:26;2.10;;;1.93;;
3149;SDS011;32503;47.748;8.960;2023-07-13T11:25:56;1.53;;;1.43;;
3149;SDS011;32503;47.748;8.960;2023-07-13T11:28:25;1.93;;;1.83;;
3149;SDS011;32503;47.748;8.960;2023-07-13T11:31:00;1.93;;;1.83;;
3149;SDS011;32503;47.748;8.960;2023-07-13T11:33:49;2.07;;;1.97;;
3149;SDS011;32503;47.748;8.960;2023-07-13T11:36:24;1.50;;;1.40;;
3149;SDS011;32503;47.748;8.960;2023-07-13T11:39:04;2.03;;;1.93;;
3149;SDS011;32503;47.748;8.960;2023-07-13T11:41:43;1.83;;;1.73;;
3149;SDS011;32503;47.748;8.960;2023-07-13T11:44:16;2.10;;;2.00;;
3149;SDS011;32503;47.748;8.960;2023-07-13T11:46:47;2.20;;;2.10;;
3149;SDS011;32503;47.748;8.960;2023-07-13T11:49:17;2.33;;;2.23;;
3149;SDS011;32503;47.748;8.960;2023-07-13T11:51:46;2.10;;;2.00;;
3149;SDS011;32503;47.748;8.960;2023-07-13T11:54:23;1.93;;;1.83;;
3149;SDS011;32503;47.748;8.960;2023-07-13T11:56:54;1.83;;;1.73;;
3149;SDS011;32503;47.748;8.960;2023-07-13T11:59:25;2.23;;;2.03;;
3149;SDS011;32503;47.748;8.960;2023-07-13T12:01:53;2.00;;;1.90;;
3149;SDS011;32503;47.748;8.960;2023-07-13T12:04:23;2.00;;;1.90;;
3149;SDS011;32503;47.748;8.960;2023-07-13T12:06:57;3.40;;;2.00;;
3149;SDS011;32503;47.748;8.960;2023-07-13T12:09:32;3.53;;;2.30;;
3149;SDS011;32503;47.748;8.960;2023-07-13T12:12:02;2.43;;;2.23;;
3149;SDS011;32503;47.748;8.960;2023-07-13T12:14:33;4.03;;;2.50;;
3149;SDS011;32503;47.748;8.960;2023-07-13T12:17:00;2.13;;;2.03;;
3149;SDS011;32503;47.748;8.960;2023-07-13T12:19:29;2.07;;;1.97;;
3149;SDS011;32503;47.748;8.960;2023-07-13T12:21:57;2.33;;;2.23;;
3149;SDS011;32503;47.748;8.960;2023-07-13T12:24:25;3.60;;;1.90;;
3149;SDS011;32503;47.748;8.960;2023-07-13T12:26:58;2.83;;;2.20;;
3149;SDS011;32503;47.748;8.960;2023-07-13T12:29:31;2.10;;;1.90;;
3149;SDS011;32503;47.748;8.960;2023-07-13T12:31:59;2.30;;;2.20;;
3149;SDS011;32503;47.748;8.960;2023-07-13T12:34:26;2.33;;;2.23;;
3149;SDS011;32503;47.748;8.960;2023-07-13T12:36:54;2.77;;;2.30;;
3149;SDS011;32503;47.748;8.960;2023-07-13T12:39:25;3.67;;;1.80;;
3149;SDS011;32503;47.748;8.960;2023-07-13T12:42:11;2.23;;;2.13;;
3149;SDS011;32503;47.748;8.960;2023-07-13T12:44:49;2.20;;;2.00;;
3149;SDS011;32503;47.748;8.960;2023-07-13T12:47:16;2.30;;;2.20;;
3149;SDS011;32503;47.748;8.960;2023-07-13T12:49:47;2.27;;;2.17;;
3149;SDS011;32503;47.748;8.960;2023-07-13T12:52:22;2.20;;;2.10;;
3149;SDS011;32503;47.748;8.960;2023-07-13T12:54:55;3.10;;;2.00;;
3149;SDS011;32503;47.748;8.960;2023-07-13T12:57:26;2.20;;;2.10;;
3149;SDS011;32503;47.748;8.960;2023-07-13T12:59:54;2.30;;;2.20;;
3149;SDS011;32503;47.748;8.960;2023-07-13T13:02:28;2.27;;;2.17;;
3149;SDS011;32503;47.748;8.960;2023-07-13T13:05:00;2.60;;;2.40;;
3149;SDS011;32503;47.748;8.960;2023-07-13T13:07:29;2.83;;;2.30;;
3149;SDS011;32503;47.748;8.960;2023-07-13T13:09:56;5.40;;;2.63;;
3149;SDS011;32503;47.748;8.960;2023-07-13T13:12:23;2.07;;;1.97;;
3149;SDS011;32503;47.748;8.960;2023-07-13T13:14:53;2.23;;;2.13;;
3149;SDS011;32503;47.748;8.960;2023-07-13T13:17:21;2.20;;;2.10;;
3149;SDS011;32503;47.748;8.960;2023-07-13T13:19:53;2.17;;;2.07;;
3149;SDS011;32503;47.748;8.960;2023-07-13T13:22:21;2.30;;;2.10;;
3149;SDS011;32503;47.748;8.960;2023-07-13T13:24:48;2.80;;;2.60;;
3149;SDS011;32503;47.748;8.960;2023-07-13T13:27:15;2.00;;;1.90;;
3149;SDS011;32503;47.748;8.960;2023-07-13T13:29:45;2.10;;;1.83;;
3149;SDS011;32503;47.748;8.960;2023-07-13T13:32:16;2.17;;;2.07;;
3149;SDS011;32503;47.748;8.960;2023-07-13T13:34:44;2.50;;;2.00;;
3149;SDS011;32503;47.748;8.960;2023-07-13T13:37:16;2.30;;;2.20;;
3149;SDS011;32503;47.748;8.960;2023-07-13T13:39:46;2.50;;;2.30;;
3149;SDS011;32503;47.748;8.960;2023-07-13T13:42:14;2.83;;;2.63;;
3149;SDS011;32503;47.748;8.960;2023-07-13T13:44:42;2.33;;;2.23;;
3149;SDS011;32503;47.748;8.960;2023-07-13T13:47:18;2.43;;;2.33;;
3149;SDS011;32503;47.748;8.960;2023-07-13T13:49:55;2.47;;;2.27;;
3149;SDS011;32503;47.748;8.960;2023-07-13T13:52:23;2.30;;;2.10;;
3149;SDS011;32503;47.748;8.960;2023-07-13T13:54:51;3.47;;;1.77;;
3149;SDS011;32503;47.748;8.960;2023-07-13T13:57:21;2.00;;;1.90;;
3149;SDS011;32503;47.748;8.960;2023-07-13T13:59:50;2.50;;;2.40;;
3149;SDS011;32503;47.748;8.960;2023-07-13T14:02:23;2.87;;;2.77;;
3149;SDS011;32503;47.748;8.960;2023-07-13T14:04:54;1.90;;;1.80;;
3149;SDS011;32503;47.748;8.960;2023-07-13T14:07:24;2.30;;;2.20;;
3149;SDS011;32503;47.748;8.960;2023-07-13T14:09:52;4.60;;;2.23;;
3149;SDS011;32503;47.748;8.960;2023-07-13T14:12:20;2.57;;;2.47;;
3149;SDS011;32503;47.748;8.960;2023-07-13T14:14:47;2.40;;;2.30;;
3149;SDS011;32503;47.748;8.960;2023-07-13T14:17:17;2.07;;;1.97;;
3149;SDS011;32503;47.748;8.960;2023-07-13T14:19:50;2.13;;;2.03;;
3149;SDS011;32503;47.748;8.960;2023-07-13T14:22:22;1.90;;;1.80;;
3149;SDS011;32503;47.748;8.960;2023-07-13T14:24:51;1.80;;;1.70;;
3149;SDS011;32503;47.748;8.960;2023-07-13T14:27:19;1.83;;;1.67;;
3149;SDS011;32503;47.748;8.960;2023-07-13T14:29:46;2.43;;;2.33;;
3149;SDS011;32503;47.748;8.960;2023-07-13T14:32:14;2.20;;;2.10;;
3149;SDS011;32503;47.748;8.960;2023-07-13T14:34:42;1.50;;;1.40;;
3149;SDS011;32503;47.748;8.960;2023-07-13T14:37:11;2.10;;;1.90;;
3149;SDS011;32503;47.748;8.960;2023-07-13T14:39:42;1.70;;;1.60;;
3149;SDS011;32503;47.748;8.960;2023-07-13T14:42:10;2.10;;;2.00;;
3149;SDS011;32503;47.748;8.960;2023-07-13T14:44:38;2.00;;;1.90;;
3149;SDS011;32503;47.748;8.960;2023-07-13T14:47:06;1.60;;;1.50;;
3149;SDS011;32503;47.748;8.960;2023-07-13T14:49:34;2.30;;;2.10;;
3149;SDS011;32503;47.748;8.960;2023-07-13T14:52:09;2.10;;;1.90;;
3149;SDS011;32503;47.748;8.960;2023-07-13T14:54:40;1.80;;;1.70;;
3149;SDS011;32503;47.748;8.960;2023-07-13T14:57:09;1.70;;;1.60;;
3149;SDS011;32503;47.748;8.960;2023-07-13T14:59:37;1.40;;;1.30;;
3149;SDS011;32503;47.748;8.960;2023-07-13T15:02:11;1.80;;;1.70;;
3149;SDS011;32503;47.748;8.960;2023-07-13T15:04:42;1.50;;;1.40;;
3149;SDS011;32503;47.748;8.960;2023-07-13T15:07:11;1.40;;;1.30;;
3149;SDS011;32503;47.748;8.960;2023-07-13T15:09:40;1.23;;;1.13;;
3149;SDS011;32503;47.748;8.960;2023-07-13T15:12:08;1.10;;;1.00;;
3149;SDS011;32503;47.748;8.960;2023-07-13T15:14:35;1.10;;;1.00;;
3149;SDS011;32503;47.748;8.960;2023-07-13T15:17:03;1.53;;;1.43;;